Time,TemperatureF,DewpointF,PressureIn,WindDirection,WindDirectionDegrees,WindSpeedMPH,WindSpeedGustMPH,Humidity,HourlyPrecipIn,Conditions,Clouds,dailyrainin,SoftwareType,DateUTC
2013-04-13 00:02:00,39.9,37.5,29.51,West,270,0.0,0.0,91,0.00,RA,,0.00,WeatherDisplay:10.37,2013-04-13 07:02:00,
2013-04-13 00:07:00,39.7,37.3,29.51,ESE,112,0.0,0.0,91,0.00,RA,,0.00,WeatherDisplay:10.37,2013-04-13 07:07:00,
2013-04-13 00:14:00,39.6,36.9,29.51,West,270,2.3,0.0,90,0.00,CLR,,0.00,WeatherDisplay:10.37,2013-04-13 07:14:00,
2013-04-13 00:19:00,39.6,36.9,29.51,SSE,158,0.0,0.0,90,0.00,CLR,,0.00,WeatherDisplay:10.37,2013-04-13 07:19:00,
2013-04-13 00:24:00,39.6,36.9,29.51,SSE,158,0.0,0.0,90,0.00,CLR,,0.00,WeatherDisplay:10.37,2013-04-13 07:24:00,
2013-04-13 00:30:00,39.4,36.7,29.52,SW,225,0.0,0.0,90,0.00,CLR,,0.00,WeatherDisplay:10.37,2013-04-13 07:30:00,
2013-04-13 00:35:00,39.4,36.7,29.52,SSE,158,0.0,0.0,90,0.00,CLR,,0.00,WeatherDisplay:10.37,2013-04-13 07:35:00,
2013-04-13 00:40:00,39.4,36.7,29.52,ENE,68,0.0,0.0,90,0.00,CLR,,0.00,WeatherDisplay:10.37,2013-04-13 07:40:00,
2013-04-13 00:45:00,39.6,36.9,29.52,SE,135,0.0,0.0,90,0.00,CLR,,0.00,WeatherDisplay:10.37,2013-04-13 07:45:00,
2013-04-13 00:50:00,39.6,36.9,29.53,SSW,202,0.0,0.0,90,0.00,CLR,,0.00,WeatherDisplay:10.37,2013-04-13 07:50:00,
2013-04-13 00:55:00,39.6,36.6,29.53,SE,135,0.0,0.0,89,0.00,CLR,,0.00,WeatherDisplay:10.37,2013-04-13 07:55:00,
2013-04-13 01:00:00,39.6,36.6,29.53,NE,45,0.0,0.0,89,0.00,CLR,,0.00,WeatherDisplay:10.37,2013-04-13 08:00:00,
2013-04-13 01:05:00,39.6,36.6,29.53,NE,45,0.0,0.0,89,0.00,CLR,,0.00,WeatherDisplay:10.37,2013-04-13 08:05:00,
2013-04-13 01:10:00,39.7,36.8,29.53,ESE,112,0.0,0.0,89,0.00,CLR,,0.00,WeatherDisplay:10.37,2013-04-13 08:10:00,
2013-04-13 01:15:00,39.7,36.8,29.53,NE,45,0.0,0.0,89,0.00,CLR,,0.00,WeatherDisplay:10.37,2013-04-13 08:15:00,
2013-04-13 01:20:00,39.9,36.7,29.53,SSE,158,0.0,0.0,88,0.00,CLR,,0.00,WeatherDisplay:10.37,2013-04-13 08:20:00,
2013-04-13 01:26:00,39.9,36.7,29.53,East,90,0.0,0.0,88,0.00,CLR,,0.00,WeatherDisplay:10.37,2013-04-13 08:26:00,
2013-04-13 01:31:00,39.9,36.7,29.53,ENE,68,0.0,0.0,88,0.00,CLR,,0.00,WeatherDisplay:10.37,2013-04-13 08:31:00,
2013-04-13 01:38:00,39.9,36.7,29.54,SSE,158,0.0,0.0,88,0.00,CLR,,0.00,WeatherDisplay:10.37,2013-04-13 08:38:00,
2013-04-13 01:45:00,40.1,36.8,29.54,WSW,248,0.0,0.0,88,0.00,CLR,,0.00,WeatherDisplay:10.37,2013-04-13 08:45:00,
2013-04-13 01:50:00,39.9,36.4,29.54,West,270,0.0,0.0,87,0.00,CLR,,0.00,WeatherDisplay:10.37,2013-04-13 08:50:00,
2013-04-13 01:55:00,39.9,36.4,29.54,NNE,22,0.0,0.0,87,0.00,CLR,,0.00,WeatherDisplay:10.37,2013-04-13 08:55:00,
2013-04-13 02:00:00,39.9,36.4,29.54,NNE,22,0.0,0.0,87,0.00,CLR,,0.00,WeatherDisplay:10.37,2013-04-13 09:00:00,
2013-04-13 02:05:00,39.9,36.4,29.54,SW,225,0.0,0.0,87,0.00,CLR,,0.00,WeatherDisplay:10.37,2013-04-13 09:05:00,
2013-04-13 02:10:00,39.9,36.4,29.54,SW,225,0.0,0.0,87,0.00,CLR,,0.00,WeatherDisplay:10.37,2013-04-13 09:10:00,
2013-04-13 02:15:00,39.9,36.4,29.54,SSW,202,0.0,0.0,87,0.00,CLR,,0.00,WeatherDisplay:10.37,2013-04-13 09:15:00,
2013-04-13 02:20:00,39.9,36.4,29.54,South,180,0.0,0.0,87,0.00,CLR,,0.00,WeatherDisplay:10.37,2013-04-13 09:20:00,
2013-04-13 02:26:00,39.7,36.2,29.55,ESE,112,0.0,0.0,87,0.00,CLR,,0.00,WeatherDisplay:10.37,2013-04-13 09:26:00,
2013-04-13 02:32:00,39.7,36.2,29.55,West,270,0.0,0.0,87,0.00,CLR,,0.00,WeatherDisplay:10.37,2013-04-13 09:32:00,
2013-04-13 02:38:00,39.7,35.9,29.55,WNW,292,0.0,0.0,86,0.00,CLR,,0.00,WeatherDisplay:10.37,2013-04-13 09:38:00,
2013-04-13 02:43:00,39.7,35.9,29.55,SSE,158,0.0,0.0,86,0.00,CLR,,0.00,WeatherDisplay:10.37,2013-04-13 09:43:00,
2013-04-13 02:49:00,39.6,35.7,29.55,WSW,248,0.0,0.0,86,0.00,CLR,,0.00,WeatherDisplay:10.37,2013-04-13 09:49:00,
2013-04-13 02:54:00,39.6,35.4,29.55,North,0,1.2,1.2,85,0.00,CLR,,0.00,WeatherDisplay:10.37,2013-04-13 09:54:00,
2013-04-13 02:59:00,39.4,35.2,29.56,SSE,158,0.0,0.0,85,0.00,CLR,,0.00,WeatherDisplay:10.37,2013-04-13 09:59:00,
2013-04-13 03:04:00,39.4,35.5,29.56,SW,225,0.0,0.0,86,0.00,CLR,,0.00,WeatherDisplay:10.37,2013-04-13 10:04:00,
2013-04-13 03:09:00,39.4,35.2,29.57,WSW,248,0.0,0.0,85,0.00,CLR,,0.00,WeatherDisplay:10.37,2013-04-13 10:09:00,
2013-04-13 03:14:00,39.4,35.2,29.57,WSW,248,1.2,1.2,85,0.00,CLR,,0.00,WeatherDisplay:10.37,2013-04-13 10:14:00,
2013-04-13 03:19:00,39.4,35.2,29.57,SSW,202,0.0,0.0,85,0.00,CLR,,0.00,WeatherDisplay:10.37,2013-04-13 10:19:00,
2013-04-13 03:24:00,39.0,35.2,29.57,SSE,158,0.0,0.0,86,0.00,CLR,,0.00,WeatherDisplay:10.37,2013-04-13 10:24:00,
2013-04-13 03:30:00,39.0,35.2,29.58,SW,225,0.0,0.0,86,0.00,CLR,,0.00,WeatherDisplay:10.37,2013-04-13 10:30:00,
2013-04-13 03:35:00,39.0,35.2,29.58,SW,225,3.5,3.5,86,0.00,CLR,,0.00,WeatherDisplay:10.37,2013-04-13 10:35:00,
2013-04-13 03:40:00,39.0,34.9,29.58,WSW,248,0.0,0.0,85,0.00,CLR,,0.00,WeatherDisplay:10.37,2013-04-13 10:40:00,
2013-04-13 03:45:00,39.0,35.2,29.58,SW,225,0.0,0.0,86,0.00,CLR,,0.00,WeatherDisplay:10.37,2013-04-13 10:45:00,
2013-04-13 03:50:00,38.8,35.0,29.59,SW,225,0.0,0.0,86,0.00,CLR,,0.00,WeatherDisplay:10.37,2013-04-13 10:50:00,
2013-04-13 03:55:00,38.8,35.0,29.59,WSW,248,0.0,0.0,86,0.00,CLR,,0.00,WeatherDisplay:10.37,2013-04-13 10:55:00,
2013-04-13 04:00:00,38.5,34.7,29.60,ESE,112,0.0,0.0,86,0.00,CLR,,0.00,WeatherDisplay:10.37,2013-04-13 11:00:00,
2013-04-13 04:05:00,38.1,34.3,29.60,ESE,112,0.0,0.0,86,0.00,CLR,,0.00,WeatherDisplay:10.37,2013-04-13 11:05:00,
2013-04-13 04:11:00,37.8,33.9,29.60,ESE,112,0.0,0.0,86,0.00,CLR,,0.00,WeatherDisplay:10.37,2013-04-13 11:11:00,
2013-04-13 04:16:00,37.6,33.8,29.60,SSE,158,0.0,0.0,86,0.00,CLR,,0.00,WeatherDisplay:10.37,2013-04-13 11:16:00,
2013-04-13 04:23:00,37.4,33.9,29.60,SSE,158,0.0,0.0,87,0.00,CLR,,0.00,WeatherDisplay:10.37,2013-04-13 11:23:00,
2013-04-13 04:28:00,37.4,33.9,29.61,SSE,158,0.0,0.0,87,0.00,CLR,,0.00,WeatherDisplay:10.37,2013-04-13 11:28:00,
2013-04-13 04:33:00,37.4,33.9,29.61,ESE,112,0.0,0.0,87,0.00,CLR,,0.00,WeatherDisplay:10.37,2013-04-13 11:33:00,
2013-04-13 04:38:00,37.4,33.9,29.62,South,180,0.0,0.0,87,0.00,CLR,,0.00,WeatherDisplay:10.37,2013-04-13 11:38:00,
2013-04-13 04:43:00,37.6,34.1,29.62,South,180,0.0,0.0,87,0.00,CLR,,0.00,WeatherDisplay:10.37,2013-04-13 11:43:00,
2013-04-13 04:48:00,37.6,34.1,29.62,SW,225,0.0,0.0,87,0.00,CLR,,0.00,WeatherDisplay:10.37,2013-04-13 11:48:00,
2013-04-13 04:53:00,37.6,34.1,29.62,SSE,158,0.0,0.0,87,0.00,CLR,,0.00,WeatherDisplay:10.37,2013-04-13 11:53:00,
2013-04-13 04:58:00,37.4,33.9,29.62,ENE,68,0.0,0.0,87,0.00,CLR,,0.00,WeatherDisplay:10.37,2013-04-13 11:58:00,
2013-04-13 05:03:00,37.4,33.9,29.62,ENE,68,0.0,0.0,87,0.00,CLR,,0.00,WeatherDisplay:10.37,2013-04-13 12:03:00,
2013-04-13 05:08:00,37.4,33.9,29.62,ENE,68,0.0,0.0,87,0.00,CLR,,0.00,WeatherDisplay:10.37,2013-04-13 12:08:00,
2013-04-13 05:13:00,37.2,33.7,29.62,SSE,158,0.0,0.0,87,0.00,CLR,,0.00,WeatherDisplay:10.37,2013-04-13 12:13:00,
2013-04-13 05:18:00,37.2,33.7,29.62,East,90,0.0,0.0,87,0.00,CLR,,0.00,WeatherDisplay:10.37,2013-04-13 12:18:00,
2013-04-13 05:23:00,37.2,33.7,29.62,East,90,0.0,0.0,87,0.00,CLR,,0.00,WeatherDisplay:10.37,2013-04-13 12:23:00,
2013-04-13 05:28:00,37.2,33.7,29.62,SSE,158,0.0,0.0,87,0.00,CLR,,0.00,WeatherDisplay:10.37,2013-04-13 12:28:00,
2013-04-13 05:34:00,37.2,33.7,29.62,SE,135,0.0,0.0,87,0.00,CLR,,0.00,WeatherDisplay:10.37,2013-04-13 12:34:00,
2013-04-13 05:39:00,37.2,33.7,29.62,East,90,0.0,0.0,87,0.00,CLR,,0.00,WeatherDisplay:10.37,2013-04-13 12:39:00,
2013-04-13 05:44:00,37.2,33.7,29.62,SSE,158,0.0,0.0,87,0.00,CLR,,0.00,WeatherDisplay:10.37,2013-04-13 12:44:00,
2013-04-13 05:49:00,37.2,33.7,29.62,SSE,158,0.0,0.0,87,0.00,CLR,,0.00,WeatherDisplay:10.37,2013-04-13 12:49:00,
2013-04-13 05:55:00,37.2,33.7,29.62,ENE,68,0.0,0.0,87,0.00,CLR,,0.00,WeatherDisplay:10.37,2013-04-13 12:55:00,
2013-04-13 06:00:00,37.2,33.7,29.62,SE,135,0.0,0.0,87,0.00,CLR,,0.00,WeatherDisplay:10.37,2013-04-13 13:00:00,
2013-04-13 06:05:00,37.2,33.7,29.62,ESE,112,0.0,0.0,87,0.00,CLR,,0.00,WeatherDisplay:10.37,2013-04-13 13:05:00,
2013-04-13 06:10:00,37.2,33.7,29.62,SSE,158,0.0,0.0,87,0.00,CLR,,0.00,WeatherDisplay:10.37,2013-04-13 13:10:00,
2013-04-13 06:15:00,37.2,33.7,29.62,East,90,0.0,0.0,87,0.00,CLR,,0.00,WeatherDisplay:10.37,2013-04-13 13:15:00,
2013-04-13 06:21:00,37.0,33.5,29.62,ENE,68,0.0,0.0,87,0.00,CLR,,0.00,WeatherDisplay:10.37,2013-04-13 13:21:00,
2013-04-13 06:26:00,37.0,33.5,29.61,SE,135,0.0,0.0,87,0.00,CLR,,0.00,WeatherDisplay:10.37,2013-04-13 13:26:00,
2013-04-13 06:32:00,37.0,33.5,29.61,East,90,0.0,0.0,87,0.00,CLR,,0.00,WeatherDisplay:10.37,2013-04-13 13:32:00,
2013-04-13 06:37:00,37.0,33.8,29.61,East,90,0.0,0.0,88,0.00,CLR,,0.00,WeatherDisplay:10.37,2013-04-13 13:37:00,
2013-04-13 06:42:00,37.0,33.8,29.62,SSE,158,0.0,0.0,88,0.00,CLR,,0.00,WeatherDisplay:10.37,2013-04-13 13:42:00,
2013-04-13 06:47:00,37.2,34.0,29.62,SSE,158,0.0,0.0,88,0.00,CLR,,0.00,WeatherDisplay:10.37,2013-04-13 13:47:00,
2013-04-13 06:52:00,37.2,34.0,29.62,SSW,202,0.0,0.0,88,0.00,CLR,,0.00,WeatherDisplay:10.37,2013-04-13 13:52:00,
2013-04-13 06:57:00,37.2,34.0,29.62,NE,45,0.0,0.0,88,0.00,CLR,,0.00,WeatherDisplay:10.37,2013-04-13 13:57:00,
2013-04-13 07:03:00,37.6,34.1,29.62,SW,225,0.0,0.0,87,0.00,CLR,,0.00,WeatherDisplay:10.37,2013-04-13 14:03:00,
2013-04-13 07:08:00,37.6,34.1,29.62,South,180,0.0,0.0,87,0.00,CLR,,0.00,WeatherDisplay:10.37,2013-04-13 14:08:00,
2013-04-13 07:14:00,37.6,34.1,29.62,SE,135,0.0,0.0,87,0.00,CLR,,0.00,WeatherDisplay:10.37,2013-04-13 14:14:00,
2013-04-13 07:19:00,37.8,34.2,29.62,SE,135,0.0,0.0,87,0.00,CLR,,0.00,WeatherDisplay:10.37,2013-04-13 14:19:00,
2013-04-13 07:25:00,37.9,34.4,29.63,East,90,0.0,0.0,87,0.00,CLR,,0.00,WeatherDisplay:10.37,2013-04-13 14:25:00,
2013-04-13 07:30:00,37.9,34.4,29.63,East,90,0.0,0.0,87,0.00,CLR,,0.00,WeatherDisplay:10.37,2013-04-13 14:30:00,
2013-04-13 07:35:00,38.1,34.6,29.63,SSE,158,0.0,0.0,87,0.00,CLR,,0.00,WeatherDisplay:10.37,2013-04-13 14:35:00,
2013-04-13 07:40:00,38.1,34.6,29.63,South,180,0.0,0.0,87,0.00,CLR,,0.00,WeatherDisplay:10.37,2013-04-13 14:40:00,
2013-04-13 07:45:00,38.3,34.8,29.63,South,180,0.0,0.0,87,0.00,CLR,,0.00,WeatherDisplay:10.37,2013-04-13 14:45:00,
2013-04-13 07:50:00,38.3,34.8,29.63,South,180,0.0,0.0,87,0.00,CLR,,0.00,WeatherDisplay:10.37,2013-04-13 14:50:00,
2013-04-13 07:55:00,38.5,34.9,29.64,SSE,158,0.0,0.0,87,0.00,CLR,,0.00,WeatherDisplay:10.37,2013-04-13 14:55:00,
2013-04-13 08:00:00,38.7,35.1,29.63,East,90,1.2,1.3,87,0.00,CLR,,0.00,WeatherDisplay:10.37,2013-04-13 15:00:00,
2013-04-13 08:05:00,38.8,35.3,29.63,SSW,202,0.0,0.0,87,0.00,CLR,,0.00,WeatherDisplay:10.37,2013-04-13 15:05:00,
2013-04-13 08:11:00,39.0,35.5,29.63,SSW,202,0.0,0.0,87,0.00,CLR,,0.00,WeatherDisplay:10.37,2013-04-13 15:11:00,
2013-04-13 08:17:00,39.0,35.2,29.64,East,90,0.0,0.0,86,0.00,CLR,,0.00,WeatherDisplay:10.37,2013-04-13 15:17:00,
2013-04-13 08:22:00,39.4,35.5,29.64,SSW,202,0.0,0.0,86,0.00,CLR,,0.00,WeatherDisplay:10.37,2013-04-13 15:22:00,
2013-04-13 08:27:00,39.4,35.5,29.63,SSE,158,0.0,0.0,86,0.00,CLR,,0.00,WeatherDisplay:10.37,2013-04-13 15:27:00,
2013-04-13 08:32:00,39.4,35.5,29.63,SSE,158,2.0,0.0,86,0.00,CLR,,0.00,WeatherDisplay:10.37,2013-04-13 15:32:00,
2013-04-13 08:37:00,39.6,35.7,29.64,SE,135,2.5,2.5,86,0.00,CLR,,0.00,WeatherDisplay:10.37,2013-04-13 15:37:00,
2013-04-13 08:42:00,39.6,35.7,29.63,ESE,112,3.5,3.5,86,0.00,CLR,,0.00,WeatherDisplay:10.37,2013-04-13 15:42:00,
2013-04-13 08:47:00,39.6,35.4,29.63,SW,225,2.3,2.3,85,0.00,CLR,,0.00,WeatherDisplay:10.37,2013-04-13 15:47:00,
2013-04-13 08:52:00,39.7,35.6,29.63,SE,135,0.0,0.0,85,0.00,CLR,,0.00,WeatherDisplay:10.37,2013-04-13 15:52:00,
2013-04-13 08:57:00,39.9,35.8,29.63,South,180,0.0,0.0,85,0.00,CLR,,0.00,WeatherDisplay:10.37,2013-04-13 15:57:00,
2013-04-13 09:03:00,39.9,35.8,29.64,SE,135,0.0,0.0,85,0.00,CLR,,0.00,WeatherDisplay:10.37,2013-04-13 16:03:00,
2013-04-13 09:08:00,39.9,35.8,29.64,SSE,158,0.0,0.0,85,0.00,CLR,,0.00,WeatherDisplay:10.37,2013-04-13 16:08:00,
2013-04-13 09:13:00,39.9,35.8,29.64,SSW,202,0.0,0.0,85,0.00,CLR,,0.00,WeatherDisplay:10.37,2013-04-13 16:13:00,
2013-04-13 09:18:00,40.1,36.0,29.64,SE,135,0.0,0.0,85,0.00,CLR,,0.00,WeatherDisplay:10.37,2013-04-13 16:18:00,
2013-04-13 09:23:00,40.3,36.1,29.63,WNW,292,0.0,0.0,85,0.00,CLR,,0.00,WeatherDisplay:10.37,2013-04-13 16:23:00,
2013-04-13 09:29:00,40.6,36.5,29.63,SSE,158,0.0,0.0,85,0.00,CLR,,0.00,WeatherDisplay:10.37,2013-04-13 16:29:00,
2013-04-13 09:34:00,40.8,36.7,29.63,South,180,6.9,7.2,85,0.00,CLR,,0.00,WeatherDisplay:10.37,2013-04-13 16:34:00,
2013-04-13 09:39:00,40.8,36.4,29.64,WSW,248,3.8,3.8,84,0.00,CLR,,0.00,WeatherDisplay:10.37,2013-04-13 16:39:00,
2013-04-13 09:44:00,40.8,36.4,29.64,WNW,292,1.2,0.0,84,0.00,CLR,,0.00,WeatherDisplay:10.37,2013-04-13 16:44:00,
2013-04-13 09:49:00,41.0,36.5,29.64,ENE,68,0.0,0.0,84,0.00,CLR,,0.00,WeatherDisplay:10.37,2013-04-13 16:49:00,
2013-04-13 09:55:00,41.2,36.7,29.64,SE,135,4.6,4.6,84,0.00,CLR,,0.00,WeatherDisplay:10.37,2013-04-13 16:55:00,
2013-04-13 10:02:00,41.5,36.8,29.64,WNW,292,4.6,4.6,83,0.00,CLR,,0.00,WeatherDisplay:10.37,2013-04-13 17:02:00,
2013-04-13 10:07:00,41.5,36.8,29.63,SE,135,0.0,0.0,83,0.00,CLR,,0.00,WeatherDisplay:10.37,2013-04-13 17:07:00,
2013-04-13 10:12:00,41.5,36.8,29.63,SSW,202,0.0,0.0,83,0.00,CLR,,0.00,WeatherDisplay:10.37,2013-04-13 17:12:00,
2013-04-13 10:17:00,41.9,37.4,29.63,WSW,248,0.0,0.0,84,0.00,CLR,,0.00,WeatherDisplay:10.37,2013-04-13 17:17:00,
2013-04-13 10:25:00,42.1,37.6,29.63,SSE,158,0.0,0.0,84,0.00,CLR,,0.00,WeatherDisplay:10.37,2013-04-13 17:25:00,
2013-04-13 10:30:00,42.1,37.3,29.63,SW,225,6.9,6.9,83,0.00,CLR,,0.00,WeatherDisplay:10.37,2013-04-13 17:30:00,
2013-04-13 10:36:00,42.1,37.3,29.63,South,180,8.1,8.1,83,0.00,CLR,,0.00,WeatherDisplay:10.37,2013-04-13 17:36:00,
2013-04-13 10:41:00,41.9,37.1,29.63,SW,225,4.6,4.6,83,0.00,CLR,,0.00,WeatherDisplay:10.37,2013-04-13 17:41:00,
2013-04-13 10:46:00,42.1,37.3,29.63,South,180,4.6,4.6,83,0.00,CLR,,0.00,WeatherDisplay:10.37,2013-04-13 17:46:00,
2013-04-13 10:52:00,42.4,37.6,29.63,South,180,2.3,2.3,83,0.00,CLR,,0.00,WeatherDisplay:10.37,2013-04-13 17:52:00,
2013-04-13 10:58:00,42.6,37.8,29.63,SSE,158,9.2,9.2,83,0.00,CLR,,0.00,WeatherDisplay:10.37,2013-04-13 17:58:00,
2013-04-13 11:03:00,42.4,37.3,29.63,ESE,112,6.9,0.0,82,0.00,CLR,,0.00,WeatherDisplay:10.37,2013-04-13 18:03:00,
2013-04-13 11:09:00,42.4,37.3,29.63,SSW,202,0.0,0.0,82,0.00,CLR,,0.00,WeatherDisplay:10.37,2013-04-13 18:09:00,
2013-04-13 11:15:00,43.0,38.2,29.64,South,180,6.3,6.3,83,0.00,CLR,,0.00,WeatherDisplay:10.37,2013-04-13 18:15:00,
2013-04-13 11:20:00,43.0,37.9,29.63,SSE,158,1.2,1.2,82,0.00,CLR,,0.00,WeatherDisplay:10.37,2013-04-13 18:20:00,
2013-04-13 11:25:00,43.3,38.2,29.64,East,90,6.9,7.4,82,0.00,CLR,,0.00,WeatherDisplay:10.37,2013-04-13 18:25:00,
2013-04-13 11:27:00,43.2,38.0,29.64,West,270,0.0,0.0,82,0.00,CLR,,0.00,WeatherDisplay:10.37,2013-04-13 18:27:00,
2013-04-13 11:28:00,43.3,38.2,29.64,South,180,6.0,6.0,82,0.00,CLR,,0.00,WeatherDisplay:10.37,2013-04-13 18:28:00,
2013-04-13 11:30:00,43.2,38.0,29.64,SSE,158,5.8,5.8,82,0.00,CLR,,0.00,WeatherDisplay:10.37,2013-04-13 18:30:00,
2013-04-13 11:33:00,43.3,38.2,29.64,SSE,158,0.0,0.0,82,0.00,CLR,,0.00,WeatherDisplay:10.37,2013-04-13 18:33:00,
2013-04-13 11:39:00,43.2,38.0,29.64,SSW,202,3.5,3.5,82,0.00,CLR,,0.00,WeatherDisplay:10.37,2013-04-13 18:39:00,
2013-04-13 11:44:00,43.0,37.9,29.64,SSE,158,0.0,0.0,82,0.00,CLR,,0.00,WeatherDisplay:10.37,2013-04-13 18:44:00,
2013-04-13 11:49:00,43.0,37.9,29.64,ENE,68,0.0,0.0,82,0.00,CLR,,0.00,WeatherDisplay:10.37,2013-04-13 18:49:00,
2013-04-13 11:54:00,43.0,38.2,29.64,East,90,1.2,1.2,83,0.00,CLR,,0.00,WeatherDisplay:10.37,2013-04-13 18:54:00,
2013-04-13 11:59:00,42.6,37.8,29.64,SSE,158,1.6,1.6,83,0.00,CLR,,0.00,WeatherDisplay:10.37,2013-04-13 18:59:00,
2013-04-13 12:04:00,42.6,37.8,29.64,SE,135,0.0,0.0,83,0.00,CLR,,0.00,WeatherDisplay:10.37,2013-04-13 19:04:00,
2013-04-13 12:10:00,43.0,38.2,29.64,West,270,0.0,0.0,83,0.00,CLR,,0.00,WeatherDisplay:10.37,2013-04-13 19:10:00,
2013-04-13 12:15:00,43.5,38.7,29.64,SSE,158,0.0,0.0,83,0.00,CLR,,0.00,WeatherDisplay:10.37,2013-04-13 19:15:00,
2013-04-13 12:20:00,43.9,38.7,29.64,East,90,0.0,0.0,82,0.00,CLR,,0.00,WeatherDisplay:10.37,2013-04-13 19:20:00,
2013-04-13 12:25:00,44.2,39.1,29.64,ESE,112,5.8,5.8,82,0.00,CLR,,0.00,WeatherDisplay:10.37,2013-04-13 19:25:00,
2013-04-13 12:30:00,44.4,39.3,29.65,WSW,248,0.0,0.6,82,0.00,CLR,,0.00,WeatherDisplay:10.37,2013-04-13 19:30:00,
2013-04-13 12:35:00,44.4,39.0,29.64,SSE,158,3.5,3.5,81,0.00,CLR,,0.00,WeatherDisplay:10.37,2013-04-13 19:35:00,
2013-04-13 12:40:00,44.4,39.0,29.65,SSW,202,0.0,0.0,81,0.00,CLR,,0.00,WeatherDisplay:10.37,2013-04-13 19:40:00,
2013-04-13 12:45:00,44.4,38.6,29.65,WSW,248,8.0,8.0,80,0.00,CLR,,0.00,WeatherDisplay:10.37,2013-04-13 19:45:00,
2013-04-13 12:50:00,44.6,39.1,29.64,WNW,292,0.0,0.0,81,0.00,CLR,,0.00,WeatherDisplay:10.37,2013-04-13 19:50:00,
2013-04-13 12:55:00,44.4,38.6,29.64,WSW,248,2.7,2.7,80,0.00,CLR,,0.00,WeatherDisplay:10.37,2013-04-13 19:55:00,
2013-04-13 13:00:00,44.4,39.0,29.64,SSW,202,0.0,0.0,81,0.00,CLR,,0.00,WeatherDisplay:10.37,2013-04-13 20:00:00,
2013-04-13 13:05:00,44.2,38.8,29.64,WNW,292,0.0,0.0,81,0.00,CLR,,0.00,WeatherDisplay:10.37,2013-04-13 20:05:00,
2013-04-13 13:10:00,44.2,39.1,29.64,SSE,158,0.0,0.0,82,0.00,CLR,,0.00,WeatherDisplay:10.37,2013-04-13 20:10:00,
2013-04-13 13:15:00,44.4,39.3,29.64,NE,45,2.3,2.3,82,0.00,CLR,,0.00,WeatherDisplay:10.37,2013-04-13 20:15:00,
2013-04-13 13:20:00,44.4,39.0,29.64,SW,225,3.6,3.6,81,0.00,CLR,,0.00,WeatherDisplay:10.37,2013-04-13 20:20:00,
2013-04-13 13:25:00,44.8,39.3,29.64,ENE,68,2.5,2.5,81,0.00,CLR,,0.00,WeatherDisplay:10.37,2013-04-13 20:25:00,
2013-04-13 13:30:00,45.0,39.5,29.64,South,180,2.3,2.3,81,0.00,CLR,,0.00,WeatherDisplay:10.37,2013-04-13 20:30:00,
2013-04-13 13:35:00,45.0,39.5,29.65,SSE,158,0.0,0.0,81,0.00,CLR,,0.00,WeatherDisplay:10.37,2013-04-13 20:35:00,
2013-04-13 13:40:00,45.0,39.5,29.65,SE,135,0.0,0.0,81,0.00,CLR,,0.00,WeatherDisplay:10.37,2013-04-13 20:40:00,
2013-04-13 13:45:00,45.0,39.5,29.65,SE,135,2.5,2.5,81,0.00,CLR,,0.00,WeatherDisplay:10.37,2013-04-13 20:45:00,
2013-04-13 13:50:00,45.3,39.8,29.65,SSW,202,2.3,2.3,81,0.00,CLR,,0.00,WeatherDisplay:10.37,2013-04-13 20:50:00,
2013-04-13 13:55:00,45.5,40.0,29.65,South,180,0.0,0.0,81,0.00,CLR,,0.00,WeatherDisplay:10.37,2013-04-13 20:55:00,
2013-04-13 14:00:00,46.0,40.2,29.64,SW,225,3.5,3.5,80,0.00,CLR,,0.00,WeatherDisplay:10.37,2013-04-13 21:00:00,
2013-04-13 14:05:00,46.0,40.2,29.65,West,270,2.3,2.3,80,0.00,CLR,,0.00,WeatherDisplay:10.37,2013-04-13 21:05:00,
2013-04-13 14:10:00,46.0,40.2,29.65,SE,135,0.0,0.0,80,0.00,CLR,,0.00,WeatherDisplay:10.37,2013-04-13 21:10:00,
2013-04-13 14:15:00,46.2,40.4,29.64,South,180,0.0,1.8,80,0.00,CLR,,0.00,WeatherDisplay:10.37,2013-04-13 21:15:00,
2013-04-13 14:20:00,46.9,41.1,29.65,SW,225,2.3,2.3,80,0.00,CLR,,0.00,WeatherDisplay:10.37,2013-04-13 21:20:00,
2013-04-13 14:25:00,47.5,41.3,29.64,WSW,248,0.0,0.0,79,0.00,CLR,,0.00,WeatherDisplay:10.37,2013-04-13 21:25:00,
2013-04-13 14:30:00,47.8,41.3,29.64,West,270,2.3,2.3,78,0.00,CLR,,0.00,WeatherDisplay:10.37,2013-04-13 21:30:00,
2013-04-13 14:35:00,47.7,40.8,29.64,East,90,0.0,0.0,77,0.00,CLR,,0.00,WeatherDisplay:10.37,2013-04-13 21:35:00,
2013-04-13 14:40:00,47.5,41.0,29.64,SE,135,0.0,0.0,78,0.00,CLR,,0.00,WeatherDisplay:10.37,2013-04-13 21:40:00,
2013-04-13 14:45:00,47.1,40.6,29.65,SSW,202,0.0,0.0,78,0.00,CLR,,0.00,WeatherDisplay:10.37,2013-04-13 21:45:00,
2013-04-13 14:50:00,46.9,40.4,29.65,SW,225,2.3,2.3,78,0.00,CLR,,0.00,WeatherDisplay:10.37,2013-04-13 21:50:00,
2013-04-13 14:55:00,46.6,40.1,29.64,SSE,158,0.0,0.0,78,0.00,CLR,,0.00,WeatherDisplay:10.37,2013-04-13 21:55:00,
2013-04-13 15:00:00,46.2,40.1,29.65,ENE,68,2.3,2.3,79,0.00,CLR,,0.00,WeatherDisplay:10.37,2013-04-13 22:00:00,
2013-04-13 15:05:00,45.7,39.5,29.65,ENE,68,3.5,3.5,79,0.00,CLR,,0.00,WeatherDisplay:10.37,2013-04-13 22:05:00,
2013-04-13 15:10:00,45.7,39.5,29.65,SE,135,0.0,0.0,79,0.00,CLR,,0.00,WeatherDisplay:10.37,2013-04-13 22:10:00,
2013-04-13 15:15:00,45.5,39.7,29.65,SSE,158,0.0,0.0,80,0.00,CLR,,0.00,WeatherDisplay:10.37,2013-04-13 22:15:00,
2013-04-13 15:20:00,45.3,39.5,29.65,SW,225,0.0,0.0,80,0.00,CLR,,0.00,WeatherDisplay:10.37,2013-04-13 22:20:00,
2013-04-13 15:25:00,45.1,39.7,29.65,South,180,0.0,0.0,81,0.00,CLR,,0.00,WeatherDisplay:10.37,2013-04-13 22:25:00,
2013-04-13 15:30:00,45.1,39.7,29.65,East,90,0.0,0.0,81,0.00,CLR,,0.00,WeatherDisplay:10.37,2013-04-13 22:30:00,
2013-04-13 15:35:00,45.1,39.7,29.65,WSW,248,2.7,2.7,81,0.00,CLR,,0.00,WeatherDisplay:10.37,2013-04-13 22:35:00,
2013-04-13 15:40:00,45.0,39.8,29.65,SSE,158,0.0,0.0,82,0.00,CLR,,0.00,WeatherDisplay:10.37,2013-04-13 22:40:00,
2013-04-13 15:45:00,45.0,39.8,29.64,South,180,0.0,0.0,82,0.00,CLR,,0.00,WeatherDisplay:10.37,2013-04-13 22:45:00,
2013-04-13 15:50:00,45.1,40.0,29.64,SE,135,2.3,2.3,82,0.00,CLR,,0.00,WeatherDisplay:10.37,2013-04-13 22:50:00,
2013-04-13 15:55:00,45.1,40.0,29.64,South,180,0.0,0.0,82,0.00,CLR,,0.00,WeatherDisplay:10.37,2013-04-13 22:55:00,
2013-04-13 16:00:00,45.3,40.1,29.64,South,180,0.0,0.0,82,0.00,CLR,,0.00,WeatherDisplay:10.37,2013-04-13 23:00:00,
2013-04-13 16:05:00,45.3,40.1,29.64,NNE,22,4.6,4.6,82,0.00,CLR,,0.00,WeatherDisplay:10.37,2013-04-13 23:05:00,
2013-04-13 16:10:00,45.7,40.2,29.64,NNE,22,0.0,0.0,81,0.00,CLR,,0.00,WeatherDisplay:10.37,2013-04-13 23:10:00,
2013-04-13 16:15:00,46.0,40.2,29.64,SSW,202,5.8,5.8,80,0.00,CLR,,0.00,WeatherDisplay:10.37,2013-04-13 23:15:00,
2013-04-13 16:20:00,46.0,40.2,29.64,West,270,0.0,0.0,80,0.00,CLR,,0.00,WeatherDisplay:10.37,2013-04-13 23:20:00,
2013-04-13 16:25:00,46.2,40.4,29.64,South,180,4.6,4.6,80,0.00,CLR,,0.00,WeatherDisplay:10.37,2013-04-13 23:25:00,
2013-04-13 16:30:00,46.0,40.2,29.64,South,180,2.3,2.3,80,0.00,CLR,,0.00,WeatherDisplay:10.37,2013-04-13 23:30:00,
2013-04-13 16:35:00,46.0,39.9,29.64,NNE,22,3.5,3.5,79,0.00,CLR,,0.00,WeatherDisplay:10.37,2013-04-13 23:35:00,
2013-04-13 16:40:00,46.6,40.7,29.63,North,0,0.0,0.0,80,0.00,CLR,,0.00,WeatherDisplay:10.37,2013-04-13 23:40:00,
2013-04-13 16:45:00,47.8,41.6,29.64,SSE,158,8.1,8.1,79,0.00,CLR,,0.00,WeatherDisplay:10.37,2013-04-13 23:45:00,
2013-04-13 16:50:00,48.2,41.3,29.63,NNW,338,0.0,0.0,77,0.00,CLR,,0.00,WeatherDisplay:10.37,2013-04-13 23:50:00,
2013-04-13 16:55:00,48.6,41.7,29.64,South,180,0.0,0.0,77,0.00,CLR,,0.00,WeatherDisplay:10.37,2013-04-13 23:55:00,
2013-04-13 17:00:00,49.3,42.0,29.63,West,270,3.5,3.5,76,0.00,CLR,,0.00,WeatherDisplay:10.37,2013-04-14 00:00:00,
2013-04-13 17:05:00,49.8,42.2,29.63,WSW,248,1.2,1.6,75,0.00,CLR,,0.00,WeatherDisplay:10.37,2013-04-14 00:05:00,
2013-04-13 17:10:00,50.5,42.9,29.63,NNE,22,0.0,0.0,75,0.00,CLR,,0.00,WeatherDisplay:10.37,2013-04-14 00:10:00,
2013-04-13 17:18:00,50.7,42.4,29.62,SW,225,1.6,1.6,73,0.00,CLR,,0.00,WeatherDisplay:10.37,2013-04-14 00:18:00,
2013-04-13 17:23:00,50.2,41.5,29.63,South,180,0.0,0.0,72,0.00,CLR,,0.00,WeatherDisplay:10.37,2013-04-14 00:23:00,
2013-04-13 17:28:00,49.3,41.0,29.64,SE,135,0.0,0.0,73,0.00,CLR,,0.00,WeatherDisplay:10.37,2013-04-14 00:28:00,
2013-04-13 17:33:00,48.9,40.6,29.64,SW,225,2.3,0.0,73,0.00,CLR,,0.00,WeatherDisplay:10.37,2013-04-14 00:33:00,
2013-04-13 17:38:00,48.4,40.5,29.64,SE,135,0.0,0.0,74,0.00,CLR,,0.00,WeatherDisplay:10.37,2013-04-14 00:38:00,
2013-04-13 17:43:00,47.7,39.8,29.64,SSE,158,0.0,0.0,74,0.00,CLR,,0.00,WeatherDisplay:10.37,2013-04-14 00:43:00,
2013-04-13 17:48:00,47.1,39.6,29.64,SE,135,0.0,0.0,75,0.00,CLR,,0.00,WeatherDisplay:10.37,2013-04-14 00:48:00,
2013-04-13 17:53:00,46.6,39.4,29.64,SW,225,1.2,1.2,76,0.00,CLR,,0.00,WeatherDisplay:10.37,2013-04-14 00:53:00,
2013-04-13 17:58:00,46.2,39.7,29.64,WNW,292,0.0,0.0,78,0.00,CLR,,0.00,WeatherDisplay:10.37,2013-04-14 00:58:00,
2013-04-13 18:04:00,45.5,39.4,29.65,North,0,0.0,0.0,79,0.02,RA,,0.02,WeatherDisplay:10.37,2013-04-14 01:04:00,
2013-04-13 18:10:00,45.3,39.5,29.65,NE,45,0.0,0.0,80,0.02,RA,,0.02,WeatherDisplay:10.37,2013-04-14 01:10:00,
2013-04-13 18:15:00,44.4,39.3,29.65,West,270,0.0,0.0,82,0.06,RA,,0.06,WeatherDisplay:10.37,2013-04-14 01:15:00,
2013-04-13 18:20:00,43.5,38.4,29.65,West,270,0.0,0.0,82,0.08,RA,,0.08,WeatherDisplay:10.37,2013-04-14 01:20:00,
2013-04-13 18:25:00,43.3,38.2,29.66,West,270,0.0,0.0,82,0.08,RA,,0.08,WeatherDisplay:10.37,2013-04-14 01:25:00,
2013-04-13 18:30:00,42.8,38.3,29.66,SSE,158,0.0,0.0,84,0.12,RA,,0.14,WeatherDisplay:10.37,2013-04-14 01:30:00,
2013-04-13 18:35:00,42.4,37.9,29.66,SSE,158,0.0,0.0,84,0.14,RA,,0.14,WeatherDisplay:10.37,2013-04-14 01:35:00,
2013-04-13 18:40:00,42.1,37.6,29.66,SSE,158,0.0,0.0,84,0.18,RA,,0.18,WeatherDisplay:10.37,2013-04-14 01:40:00,
2013-04-13 18:45:00,42.1,37.9,29.66,SSE,158,0.0,0.0,85,0.18,RA,,0.18,WeatherDisplay:10.37,2013-04-14 01:45:00,
2013-04-13 18:50:00,42.1,37.9,29.67,SSE,158,0.0,0.0,85,0.18,CLR,,0.18,WeatherDisplay:10.37,2013-04-14 01:50:00,
2013-04-13 18:55:00,42.1,38.2,29.67,SSE,158,0.0,0.0,86,0.18,CLR,,0.18,WeatherDisplay:10.37,2013-04-14 01:55:00,
2013-04-13 19:00:00,41.9,38.0,29.67,SSE,158,0.0,0.0,86,0.18,CLR,,0.18,WeatherDisplay:10.37,2013-04-14 02:00:00,
2013-04-13 19:05:00,41.7,37.8,29.67,SSE,158,0.0,0.0,86,0.20,RA,,0.22,WeatherDisplay:10.37,2013-04-14 02:05:00,
2013-04-13 19:10:00,41.7,38.1,29.67,SSE,158,0.0,0.0,87,0.20,RA,,0.22,WeatherDisplay:10.37,2013-04-14 02:10:00,
2013-04-13 19:15:00,41.9,38.3,29.67,SSE,158,0.0,0.0,87,0.16,,,0.22,WeatherDisplay:10.37,2013-04-14 02:15:00,
2013-04-13 19:20:00,41.9,38.3,29.67,SSE,158,0.0,0.0,87,0.14,CLR,,0.22,WeatherDisplay:10.37,2013-04-14 02:20:00,
2013-04-13 19:25:00,41.9,38.3,29.67,SSE,158,0.0,0.0,87,0.14,CLR,,0.22,WeatherDisplay:10.37,2013-04-14 02:25:00,
2013-04-13 19:30:00,41.5,38.3,29.68,SSE,158,0.0,0.0,88,0.10,CLR,,0.22,WeatherDisplay:10.37,2013-04-14 02:30:00,
2013-04-13 19:35:00,41.4,38.1,29.68,SSE,158,0.0,0.0,88,0.08,CLR,,0.22,WeatherDisplay:10.37,2013-04-14 02:35:00,
2013-04-13 19:40:00,41.2,37.9,29.68,SSE,158,0.0,0.0,88,0.04,CLR,,0.22,WeatherDisplay:10.37,2013-04-14 02:40:00,
2013-04-13 19:45:00,41.0,37.7,29.68,SSE,158,0.0,0.0,88,0.04,CLR,,0.22,WeatherDisplay:10.37,2013-04-14 02:45:00,
2013-04-13 19:50:00,40.8,37.5,29.68,SSE,158,0.0,0.0,88,0.04,CLR,,0.22,WeatherDisplay:10.37,2013-04-14 02:50:00,
2013-04-13 19:55:00,40.8,37.5,29.68,SSE,158,0.0,0.0,88,0.04,CLR,,0.22,WeatherDisplay:10.37,2013-04-14 02:55:00,
2013-04-13 20:00:00,40.8,37.8,29.69,SSE,158,0.0,0.0,89,0.04,CLR,,0.22,WeatherDisplay:10.37,2013-04-14 03:00:00,
2013-04-13 20:05:00,40.8,37.8,29.69,SSE,158,0.0,0.0,89,0.00,CLR,,0.22,WeatherDisplay:10.37,2013-04-14 03:05:00,
2013-04-13 20:10:00,40.8,37.8,29.69,SSE,158,0.0,0.0,89,0.00,CLR,,0.22,WeatherDisplay:10.37,2013-04-14 03:10:00,
2013-04-13 20:15:00,40.8,37.8,29.70,SSE,158,0.0,0.0,89,0.00,CLR,,0.22,WeatherDisplay:10.37,2013-04-14 03:15:00,
2013-04-13 20:20:00,40.8,37.8,29.69,SSE,158,0.0,0.0,89,0.00,CLR,,0.22,WeatherDisplay:10.37,2013-04-14 03:20:00,
2013-04-13 20:25:00,40.8,37.8,29.70,SSE,158,0.0,0.0,89,0.00,CLR,,0.22,WeatherDisplay:10.37,2013-04-14 03:25:00,
2013-04-13 20:30:00,40.6,37.7,29.70,SSE,158,0.0,0.0,89,0.04,RA,,0.26,WeatherDisplay:10.37,2013-04-14 03:30:00,
2013-04-13 20:35:00,40.6,37.7,29.70,SSE,158,0.0,0.0,89,0.04,RA,,0.26,WeatherDisplay:10.37,2013-04-14 03:35:00,
2013-04-13 20:40:00,40.6,37.7,29.70,SSE,158,0.0,0.0,89,0.04,CLR,,0.26,WeatherDisplay:10.37,2013-04-14 03:40:00,
2013-04-13 20:45:00,40.5,37.8,29.70,SSE,158,0.0,0.0,90,0.04,CLR,,0.26,WeatherDisplay:10.37,2013-04-14 03:45:00,
2013-04-13 20:50:00,40.5,37.8,29.71,SSE,158,0.0,0.0,90,0.04,CLR,,0.26,WeatherDisplay:10.37,2013-04-14 03:50:00,
2013-04-13 20:55:00,40.3,37.6,29.71,SSE,158,0.0,0.0,90,0.08,RA,,0.30,WeatherDisplay:10.37,2013-04-14 03:55:00,
2013-04-13 21:00:00,40.3,37.6,29.71,ESE,112,0.0,0.0,90,0.08,RA,,0.30,WeatherDisplay:10.37,2013-04-14 04:00:00,
2013-04-13 21:01:00,40.3,37.6,29.71,ESE,112,0.0,0.0,90,0.08,RA,,0.30,WeatherDisplay:10.37,2013-04-14 04:01:00,
2013-04-13 21:04:00,40.3,37.6,29.71,ESE,112,0.0,0.0,90,0.12,RA,,0.34,WeatherDisplay:10.37,2013-04-14 04:04:00,
2013-04-13 21:09:00,40.3,37.6,29.72,SE,135,0.0,0.0,90,0.16,RA,,0.39,WeatherDisplay:10.37,2013-04-14 04:09:00,
2013-04-13 21:14:00,40.1,37.4,29.72,SE,135,0.0,0.0,90,0.18,RA,,0.41,WeatherDisplay:10.37,2013-04-14 04:14:00,
2013-04-13 21:15:00,40.3,37.6,29.72,SE,135,0.0,0.0,90,0.18,RA,,0.41,WeatherDisplay:10.37,2013-04-14 04:15:00,
2013-04-13 21:20:00,40.1,37.4,29.72,SE,135,0.0,0.0,90,0.24,RA,,0.47,WeatherDisplay:10.37,2013-04-14 04:20:00,
2013-04-13 21:25:00,39.9,37.2,29.71,SE,135,0.0,0.0,90,0.24,RA,,0.47,WeatherDisplay:10.37,2013-04-14 04:25:00,
2013-04-13 21:30:00,39.9,37.2,29.72,SE,135,0.0,0.0,90,0.20,,,0.47,WeatherDisplay:10.37,2013-04-14 04:30:00,
2013-04-13 21:35:00,39.9,37.2,29.72,SE,135,0.0,0.0,90,0.20,CLR,,0.47,WeatherDisplay:10.37,2013-04-14 04:35:00,
2013-04-13 21:40:00,39.9,37.2,29.72,SE,135,0.0,0.0,90,0.20,CLR,,0.47,WeatherDisplay:10.37,2013-04-14 04:40:00,
2013-04-13 21:45:00,39.7,37.3,29.72,SE,135,0.0,0.0,91,0.20,CLR,,0.47,WeatherDisplay:10.37,2013-04-14 04:45:00,
2013-04-13 21:50:00,39.7,37.3,29.72,SE,135,0.0,0.0,91,0.20,CLR,,0.47,WeatherDisplay:10.37,2013-04-14 04:50:00,
2013-04-13 21:55:00,39.6,37.2,29.72,SE,135,0.0,0.0,91,0.16,CLR,,0.47,WeatherDisplay:10.37,2013-04-14 04:55:00,
2013-04-13 22:00:00,39.4,37.0,29.72,SE,135,0.0,0.0,91,0.16,CLR,,0.47,WeatherDisplay:10.37,2013-04-14 05:00:00,
2013-04-13 22:05:00,39.4,37.0,29.72,SE,135,0.0,0.0,91,0.12,CLR,,0.47,WeatherDisplay:10.37,2013-04-14 05:05:00,
2013-04-13 22:10:00,39.0,36.6,29.72,SE,135,0.0,0.0,91,0.08,CLR,,0.47,WeatherDisplay:10.37,2013-04-14 05:10:00,
2013-04-13 22:15:00,39.0,36.6,29.72,SE,135,0.0,0.0,91,0.06,CLR,,0.47,WeatherDisplay:10.37,2013-04-14 05:15:00,
2013-04-13 22:20:00,38.8,36.4,29.72,SSE,158,0.0,0.0,91,0.00,CLR,,0.47,WeatherDisplay:10.37,2013-04-14 05:20:00,
2013-04-13 22:25:00,38.8,36.4,29.72,SSE,158,0.0,0.0,91,0.00,CLR,,0.47,WeatherDisplay:10.37,2013-04-14 05:25:00,
2013-04-13 22:30:00,38.8,36.4,29.72,SSE,158,0.0,0.0,91,0.00,CLR,,0.47,WeatherDisplay:10.37,2013-04-14 05:30:00,
2013-04-13 22:35:00,38.8,36.4,29.72,ENE,68,0.0,0.0,91,0.00,CLR,,0.47,WeatherDisplay:10.37,2013-04-14 05:35:00,
2013-04-13 22:40:00,38.8,36.4,29.73,ENE,68,0.0,0.0,91,0.00,CLR,,0.47,WeatherDisplay:10.37,2013-04-14 05:40:00,
2013-04-13 22:45:00,38.8,36.4,29.72,ENE,68,0.0,0.0,91,0.00,CLR,,0.47,WeatherDisplay:10.37,2013-04-14 05:45:00,
2013-04-13 22:50:00,38.8,36.4,29.73,ENE,68,0.0,0.0,91,0.00,CLR,,0.47,WeatherDisplay:10.37,2013-04-14 05:50:00,
2013-04-13 22:55:00,38.8,36.4,29.73,ENE,68,0.0,0.0,91,0.00,CLR,,0.47,WeatherDisplay:10.37,2013-04-14 05:55:00,
2013-04-13 23:01:00,38.8,36.4,29.73,ENE,68,0.0,0.0,91,0.00,CLR,,0.47,WeatherDisplay:10.37,2013-04-14 06:01:00,
2013-04-13 23:06:00,38.7,36.3,29.73,ENE,68,0.0,0.0,91,0.00,CLR,,0.47,WeatherDisplay:10.37,2013-04-14 06:06:00,
2013-04-13 23:11:00,38.8,36.4,29.73,ENE,68,0.0,0.0,91,0.00,CLR,,0.47,WeatherDisplay:10.37,2013-04-14 06:11:00,
2013-04-13 23:17:00,38.8,36.4,29.73,ENE,68,0.0,0.0,91,0.00,CLR,,0.47,WeatherDisplay:10.37,2013-04-14 06:17:00,
2013-04-13 23:22:00,38.8,36.4,29.74,ENE,68,0.0,0.0,91,0.00,CLR,,0.47,WeatherDisplay:10.37,2013-04-14 06:22:00,
2013-04-13 23:27:00,38.8,36.7,29.74,ENE,68,0.0,0.0,92,0.00,CLR,,0.47,WeatherDisplay:10.37,2013-04-14 06:27:00,
2013-04-13 23:32:00,38.8,36.7,29.74,ENE,68,0.0,0.0,92,0.04,RA,,0.51,WeatherDisplay:10.37,2013-04-14 06:32:00,
2013-04-13 23:37:00,38.8,36.7,29.74,ENE,68,0.0,0.0,92,0.04,RA,,0.51,WeatherDisplay:10.37,2013-04-14 06:37:00,
2013-04-13 23:42:00,38.5,36.4,29.74,ENE,68,0.0,0.0,92,0.04,CLR,,0.51,WeatherDisplay:10.37,2013-04-14 06:42:00,
2013-04-13 23:48:00,38.5,36.4,29.74,East,90,0.0,0.0,92,0.04,CLR,,0.51,WeatherDisplay:10.37,2013-04-14 06:48:00,
2013-04-13 23:53:00,38.3,36.2,29.74,ENE,68,0.0,0.0,92,0.04,CLR,,0.51,WeatherDisplay:10.37,2013-04-14 06:53:00,
2013-04-13 23:58:00,38.3,36.2,29.74,ENE,68,0.0,0.0,92,0.04,CLR,,0.51,WeatherDisplay:10.37,2013-04-14 06:58:00,